createdAt,value
2018-05-25T00:00:01.394Z,47.41
2018-05-25T00:01:10.543Z,47.41
2018-05-25T00:02:19.715Z,47.5
2018-05-25T00:03:29.399Z,47.6
2018-05-25T00:04:39.090Z,47.6
2018-05-25T00:05:48.748Z,47.5
2018-05-25T00:06:58.449Z,47.99
2018-05-25T00:08:08.133Z,47.79
2018-05-25T00:09:17.046Z,47.89
2018-05-25T00:10:26.731Z,47.69
2018-05-25T00:11:36.413Z,47.89
2018-05-25T00:12:45.589Z,47.99
2018-05-25T00:13:54.758Z,47.89
2018-05-25T00:15:03.914Z,47.69
2018-05-25T00:16:13.593Z,47.69
2018-05-25T00:17:23.011Z,47.79
2018-05-25T00:18:32.163Z,47.79
2018-05-25T00:19:41.569Z,47.69
2018-05-25T00:20:51.509Z,47.6
2018-05-25T00:22:00.934Z,47.79
2018-05-25T00:23:10.674Z,47.99
2018-05-25T00:24:19.894Z,47.89
2018-05-25T00:25:29.064Z,48.08
2018-05-25T00:26:38.748Z,47.89
2018-05-25T00:27:48.182Z,47.99
2018-05-25T00:28:57.876Z,48.08
2018-05-25T00:30:07.059Z,48.47
2018-05-25T00:31:16.214Z,48.47
2018-05-25T00:32:25.121Z,48.47
2018-05-25T00:33:34.037Z,48.47
2018-05-25T00:34:43.443Z,48.18
2018-05-25T00:35:53.410Z,48.37
2018-05-25T00:37:02.894Z,48.18
2018-05-25T00:38:12.796Z,48.27
2018-05-25T00:39:22.032Z,48.37
2018-05-25T00:40:30.956Z,48.37
2018-05-25T00:41:39.898Z,48.37
2018-05-25T00:42:49.317Z,48.37
2018-05-25T00:43:58.503Z,48.37
2018-05-25T00:45:07.686Z,48.27
2018-05-25T00:46:16.846Z,48.37
2018-05-25T00:47:26.272Z,48.57
2018-05-25T00:48:35.725Z,48.37
2018-05-25T00:49:45.444Z,48.47
2018-05-25T00:50:54.864Z,48.37
2018-05-25T00:52:04.571Z,48.27
2018-05-25T00:53:13.750Z,48.18
2018-05-25T00:54:23.181Z,48.18
2018-05-25T00:55:32.339Z,48.18
2018-05-25T00:56:41.779Z,48.08
2018-05-25T00:57:51.204Z,48.18
2018-05-25T00:59:00.622Z,48.18
2018-05-25T01:00:10.085Z,48.08
2018-05-25T01:01:19.283Z,48.27
2018-05-25T01:02:28.946Z,48.27
2018-05-25T01:03:38.646Z,48.18
2018-05-25T01:04:48.125Z,48.18
2018-05-25T01:05:57.558Z,48.18
2018-05-25T01:07:06.759Z,48.37
2018-05-25T01:08:16.439Z,48.27
2018-05-25T01:09:26.383Z,48.47
2018-05-25T01:10:35.809Z,48.47
2018-05-25T01:11:45.255Z,48.57
2018-05-25T01:12:54.432Z,48.57
2018-05-25T01:14:03.838Z,48.18
2018-05-25T01:15:13.252Z,48.57
2018-05-25T01:16:22.429Z,48.66
2018-05-25T01:17:31.605Z,48.66
2018-05-25T01:18:41.046Z,48.57
2018-05-25T01:19:50.260Z,48.57
2018-05-25T01:20:59.453Z,48.37
2018-05-25T01:22:09.135Z,48.66
2018-05-25T01:23:18.081Z,48.66
2018-05-25T01:24:27.535Z,48.47
2018-05-25T01:25:37.010Z,48.57
2018-05-25T01:26:46.673Z,48.57
2018-05-25T01:27:55.835Z,48.47
2018-05-25T01:29:05.014Z,48.66
2018-05-25T01:30:14.184Z,48.76
2018-05-25T01:31:23.608Z,48.66
2018-05-25T01:32:33.300Z,48.86
2018-05-25T01:33:42.753Z,48.57
2018-05-25T01:34:52.201Z,48.57
2018-05-25T01:36:02.191Z,48.47
2018-05-25T01:37:11.348Z,48.66
2018-05-25T01:38:20.792Z,48.57
2018-05-25T01:39:29.965Z,48.66
2018-05-25T01:40:39.964Z,48.47
2018-05-25T01:41:49.390Z,48.76
2018-05-25T01:42:59.091Z,48.47
2018-05-25T01:44:08.499Z,48.47
2018-05-25T01:45:18.163Z,48.47
2018-05-25T01:46:27.607Z,48.47
2018-05-25T01:47:37.024Z,48.57
2018-05-25T01:48:46.444Z,48.57
2018-05-25T01:49:56.386Z,48.57
2018-05-25T01:51:06.101Z,48.57
2018-05-25T01:52:15.278Z,48.57
2018-05-25T01:53:24.457Z,48.66
2018-05-25T01:54:34.139Z,48.66
2018-05-25T01:55:44.054Z,48.66
2018-05-25T01:56:53.226Z,48.76
2018-05-25T01:58:02.389Z,48.76
2018-05-25T01:59:11.800Z,48.47
2018-05-25T02:00:20.728Z,48.76
2018-05-25T02:01:29.679Z,48.57
2018-05-25T02:02:39.349Z,48.57
2018-05-25T02:03:48.794Z,48.66
2018-05-25T02:04:57.979Z,48.95
2018-05-25T02:06:06.908Z,48.66
2018-05-25T02:07:16.068Z,48.66
2018-05-25T02:08:25.508Z,48.86
2018-05-25T02:09:34.949Z,48.27
2018-05-25T02:10:44.123Z,48.95
2018-05-25T02:11:53.819Z,48.27
2018-05-25T02:13:03.546Z,48.57
2018-05-25T02:14:12.994Z,49.05
2018-05-25T02:15:22.431Z,48.76
2018-05-25T02:16:31.848Z,49.05
2018-05-25T02:17:41.315Z,48.95
2018-05-25T02:18:50.782Z,49.15
2018-05-25T02:20:00.219Z,49.02
2018-05-25T02:21:08.879Z,48.57
2018-05-25T02:22:18.045Z,48.76
2018-05-25T02:23:27.543Z,48.83
2018-05-25T02:24:36.722Z,48.74
2018-05-25T02:25:46.148Z,48.76
2018-05-25T02:26:55.859Z,49.05
2018-05-25T02:28:05.296Z,49.02
2018-05-25T02:29:14.466Z,49.05
2018-05-25T02:30:23.886Z,48.66
2018-05-25T02:31:33.602Z,48.66
2018-05-25T02:32:43.294Z,48.76
2018-05-25T02:33:52.751Z,48.86
2018-05-25T02:35:02.163Z,49.15
2018-05-25T02:36:11.593Z,48.83
2018-05-25T02:37:21.317Z,48.93
2018-05-25T02:38:30.535Z,48.83
2018-05-25T02:39:40.410Z,48.54
2018-05-25T02:40:50.614Z,48.64
2018-05-25T02:41:59.780Z,48.64
2018-05-25T02:43:08.963Z,48.64
2018-05-25T02:44:18.424Z,48.76
2018-05-25T02:45:28.125Z,49.05
2018-05-25T02:46:37.060Z,48.64
2018-05-25T02:47:46.749Z,48.83
2018-05-25T02:48:56.163Z,48.86
2018-05-25T02:50:05.360Z,48.86
2018-05-25T02:51:14.796Z,48.83
2018-05-25T02:52:24.521Z,48.95
2018-05-25T02:53:33.679Z,48.95
2018-05-25T02:54:42.572Z,49.02
2018-05-25T02:55:51.755Z,48.93
2018-05-25T02:57:00.973Z,48.93
2018-05-25T02:58:10.407Z,48.93
2018-05-25T02:59:19.556Z,48.93
2018-05-25T03:00:29.503Z,48.95
2018-05-25T03:01:38.906Z,49.12
2018-05-25T03:02:48.365Z,49.12
2018-05-25T03:03:58.333Z,48.93
2018-05-25T03:05:08.044Z,48.93
2018-05-25T03:06:17.492Z,48.74
2018-05-25T03:07:27.176Z,48.93
2018-05-25T03:08:36.865Z,49.05
2018-05-25T03:09:46.552Z,48.86
2018-05-25T03:10:56.525Z,49.05
2018-05-25T03:12:05.782Z,49.02
2018-05-25T03:13:15.017Z,48.93
2018-05-25T03:14:24.694Z,48.74
2018-05-25T03:15:33.837Z,48.93
2018-05-25T03:16:43.254Z,48.86
2018-05-25T03:17:52.488Z,48.86
2018-05-25T03:19:02.169Z,49.05
2018-05-25T03:20:11.345Z,49.02
2018-05-25T03:21:20.774Z,49.02
2018-05-25T03:22:30.697Z,48.93
2018-05-25T03:23:40.150Z,48.95
2018-05-25T03:24:49.560Z,48.95
2018-05-25T03:25:58.981Z,49.02
2018-05-25T03:27:07.911Z,49.22
2018-05-25T03:28:17.880Z,49.12
2018-05-25T03:29:26.793Z,49.05
2018-05-25T03:30:35.708Z,49.15
2018-05-25T03:31:45.162Z,49.22
2018-05-25T03:32:54.333Z,48.83
2018-05-25T03:34:03.763Z,48.93
2018-05-25T03:35:13.762Z,48.83
2018-05-25T03:36:23.183Z,49.05
2018-05-25T03:37:32.601Z,49.15
2018-05-25T03:38:42.029Z,48.83
2018-05-25T03:39:50.945Z,48.86
2018-05-25T03:41:00.602Z,49.02
2018-05-25T03:42:10.030Z,49.02
2018-05-25T03:43:19.720Z,48.93
2018-05-25T03:44:29.169Z,49.22
2018-05-25T03:45:38.347Z,49.02
2018-05-25T03:46:48.022Z,48.74
2018-05-25T03:47:57.185Z,49.05
2018-05-25T03:49:06.602Z,49.41
2018-05-25T03:50:15.770Z,49.12
2018-05-25T03:51:25.205Z,49.12
2018-05-25T03:52:34.372Z,49.15
2018-05-25T03:53:43.799Z,49.15
2018-05-25T03:54:53.232Z,49.15
2018-05-25T03:56:02.661Z,49.15
2018-05-25T03:57:12.113Z,49.41
2018-05-25T03:58:21.542Z,49.15
2018-05-25T03:59:31.222Z,49.22
2018-05-25T04:00:40.134Z,49.44
2018-05-25T04:01:49.313Z,49.24
2018-05-25T04:02:58.993Z,49.82
2018-05-25T04:04:08.419Z,49.8
2018-05-25T04:05:17.573Z,49.8
2018-05-25T04:06:27.000Z,49.82
2018-05-25T04:07:36.452Z,49.8
2018-05-25T04:08:45.870Z,49.63
2018-05-25T04:09:55.814Z,49.73
2018-05-25T04:11:05.767Z,49.73
2018-05-25T04:12:15.454Z,49.82
2018-05-25T04:13:24.616Z,49.8
2018-05-25T04:14:33.782Z,49.7
2018-05-25T04:15:42.957Z,49.7
2018-05-25T04:16:52.663Z,49.82
2018-05-25T04:18:01.836Z,49.73
2018-05-25T04:19:11.008Z,49.6
2018-05-25T04:20:20.434Z,49.8
2018-05-25T04:21:29.846Z,49.82
2018-05-25T04:22:39.289Z,49.6
2018-05-25T04:23:48.712Z,49.6
2018-05-25T04:24:58.387Z,49.6
2018-05-25T04:26:07.544Z,49.54
2018-05-25T04:27:17.241Z,49.7
2018-05-25T04:28:26.659Z,49.7
2018-05-25T04:29:35.838Z,49.7
2018-05-25T04:30:45.552Z,49.6
2018-05-25T04:31:54.963Z,49.6
2018-05-25T04:33:04.409Z,49.41
2018-05-25T04:34:14.085Z,49.54
2018-05-25T04:35:23.254Z,49.6
2018-05-25T04:36:33.207Z,49.41
2018-05-25T04:37:42.631Z,49.54
2018-05-25T04:38:52.042Z,49.7
2018-05-25T04:40:01.982Z,49.51
2018-05-25T04:41:10.930Z,49.41
2018-05-25T04:42:20.342Z,49.51
2018-05-25T04:43:29.766Z,49.63
2018-05-25T04:44:38.939Z,49.51
2018-05-25T04:45:48.092Z,49.54
2018-05-25T04:46:57.770Z,49.51
2018-05-25T04:48:06.926Z,49.54
2018-05-25T04:49:16.868Z,49.8
2018-05-25T04:50:26.273Z,49.9
2018-05-25T04:51:35.447Z,49.63
2018-05-25T04:52:45.138Z,50.09
2018-05-25T04:53:54.291Z,50.18
2018-05-25T04:55:03.732Z,50.09
2018-05-25T04:56:13.403Z,50.09
2018-05-25T04:57:23.362Z,49.99
2018-05-25T04:58:32.545Z,49.99
2018-05-25T04:59:41.450Z,49.73
2018-05-25T05:00:50.362Z,49.99
2018-05-25T05:02:00.284Z,49.7
2018-05-25T05:03:09.972Z,49.7
2018-05-25T05:04:19.397Z,49.54
2018-05-25T05:05:29.081Z,49.51
2018-05-25T05:06:38.510Z,49.63
2018-05-25T05:07:47.924Z,49.6
2018-05-25T05:08:57.077Z,49.32
2018-05-25T05:10:06.766Z,49.44
2018-05-25T05:11:16.488Z,49.41
2018-05-25T05:12:25.708Z,49.7
2018-05-25T05:13:34.863Z,49.6
2018-05-25T05:14:44.666Z,49.7
2018-05-25T05:15:54.826Z,49.7
2018-05-25T05:17:03.781Z,49.7
2018-05-25T05:18:13.469Z,49.7
2018-05-25T05:19:22.680Z,49.7
2018-05-25T05:20:31.599Z,49.7
2018-05-25T05:21:40.790Z,49.82
2018-05-25T05:22:50.763Z,49.7
2018-05-25T05:24:00.223Z,49.82
2018-05-25T05:25:08.877Z,49.73
2018-05-25T05:26:18.021Z,49.73
2018-05-25T05:27:28.125Z,49.73
2018-05-25T05:28:37.289Z,49.73
2018-05-25T05:29:46.448Z,49.73
2018-05-25T05:30:55.880Z,49.73
2018-05-25T05:32:05.815Z,49.73
2018-05-25T05:33:15.492Z,49.73
2018-05-25T05:34:24.689Z,49.73
2018-05-25T05:35:33.594Z,49.73
2018-05-25T05:36:42.784Z,49.82
2018-05-25T05:37:51.949Z,49.73
2018-05-25T05:39:01.129Z,49.82
2018-05-25T05:40:10.820Z,49.73
2018-05-25T05:41:20.759Z,49.73
2018-05-25T05:42:30.173Z,49.73
2018-05-25T05:43:39.848Z,49.63
2018-05-25T05:44:49.302Z,49.73
2018-05-25T05:45:58.718Z,49.82
2018-05-25T05:47:08.157Z,49.63
2018-05-25T05:48:16.801Z,49.73
2018-05-25T05:49:26.233Z,49.63
2018-05-25T05:50:35.445Z,49.73
2018-05-25T05:51:45.372Z,49.73
2018-05-25T05:52:54.792Z,49.63
2018-05-25T05:54:03.964Z,49.63
2018-05-25T05:55:13.661Z,49.73
2018-05-25T05:56:23.108Z,49.54
2018-05-25T05:57:32.277Z,49.82
2018-05-25T05:58:41.982Z,49.73
2018-05-25T05:59:51.399Z,49.73
2018-05-25T06:01:00.331Z,49.63
2018-05-25T06:02:09.499Z,49.63
2018-05-25T06:03:18.925Z,49.73
2018-05-25T06:04:28.529Z,49.73
2018-05-25T06:05:37.685Z,49.73
2018-05-25T06:06:47.156Z,49.73
2018-05-25T06:07:56.575Z,49.73
2018-05-25T06:09:05.766Z,49.63
2018-05-25T06:10:15.457Z,49.82
2018-05-25T06:11:24.370Z,49.73
2018-05-25T06:12:33.274Z,49.63
2018-05-25T06:13:42.711Z,49.63
2018-05-25T06:14:52.132Z,49.73
2018-05-25T06:16:01.871Z,49.63
2018-05-25T06:17:11.320Z,49.63
2018-05-25T06:18:20.263Z,49.54
2018-05-25T06:19:29.429Z,49.63
2018-05-25T06:20:38.582Z,49.34
2018-05-25T06:21:47.755Z,49.63
2018-05-25T06:22:57.999Z,49.73
2018-05-25T06:24:07.226Z,49.63
2018-05-25T06:25:17.203Z,49.73
2018-05-25T06:26:26.981Z,49.34
2018-05-25T06:27:35.633Z,49.73
2018-05-25T06:28:45.338Z,49.34
2018-05-25T06:29:55.026Z,49.73
2018-05-25T06:31:04.453Z,49.44
2018-05-25T06:32:13.920Z,49.63
2018-05-25T06:33:23.393Z,49.63
2018-05-25T06:34:32.083Z,49.73
2018-05-25T06:35:41.514Z,49.73
2018-05-25T06:36:50.949Z,49.63
2018-05-25T06:38:00.116Z,49.63
2018-05-25T06:39:09.777Z,49.63
2018-05-25T06:40:19.223Z,49.73
2018-05-25T06:41:28.931Z,49.82
2018-05-25T06:42:38.356Z,49.63
2018-05-25T06:43:49.051Z,49.54
2018-05-25T06:45:01.251Z,49.73
2018-05-25T06:46:10.944Z,49.63
2018-05-25T06:47:20.124Z,49.63
2018-05-25T06:48:29.037Z,49.82
2018-05-25T06:49:37.943Z,49.73
2018-05-25T06:50:47.658Z,49.73
2018-05-25T06:51:57.093Z,49.73
2018-05-25T06:53:06.778Z,49.63
2018-05-25T06:54:16.202Z,49.63
2018-05-25T06:55:26.150Z,49.63
2018-05-25T06:56:35.620Z,49.63
2018-05-25T06:57:45.303Z,49.63
2018-05-25T06:58:54.302Z,49.63
2018-05-25T07:00:03.748Z,49.63
2018-05-25T07:01:12.674Z,49.73
2018-05-25T07:02:22.641Z,49.63
2018-05-25T07:03:32.089Z,49.63
2018-05-25T07:04:41.273Z,49.63
2018-05-25T07:05:50.466Z,49.63
2018-05-25T07:06:59.413Z,49.73
2018-05-25T07:08:08.593Z,49.63
2018-05-25T07:09:18.020Z,49.63
2018-05-25T07:10:27.471Z,49.63
2018-05-25T07:11:36.398Z,49.73
2018-05-25T07:12:46.082Z,49.63
2018-05-25T07:13:55.540Z,49.63
2018-05-25T07:15:05.038Z,49.73
2018-05-25T07:16:14.558Z,49.73
2018-05-25T07:17:23.998Z,49.73
2018-05-25T07:18:33.163Z,49.63
2018-05-25T07:19:42.843Z,49.73
2018-05-25T07:20:52.543Z,49.73
2018-05-25T07:22:01.709Z,49.82
2018-05-25T07:23:11.230Z,49.73
2018-05-25T07:24:20.391Z,49.82
2018-05-25T07:25:29.805Z,49.73
2018-05-25T07:26:39.264Z,49.82
2018-05-25T07:27:48.163Z,49.73
2018-05-25T07:28:57.836Z,49.73
2018-05-25T07:30:07.287Z,49.34
2018-05-25T07:31:16.210Z,49.82
2018-05-25T07:32:25.914Z,49.73
2018-05-25T07:33:35.125Z,49.73
2018-05-25T07:34:44.803Z,49.73
2018-05-25T07:35:53.968Z,49.73
2018-05-25T07:37:03.426Z,49.63
2018-05-25T07:38:12.854Z,49.34
2018-05-25T07:39:22.313Z,49.34
2018-05-25T07:40:32.135Z,49.63
2018-05-25T07:41:41.309Z,49.34
2018-05-25T07:42:50.748Z,49.82
2018-05-25T07:43:59.968Z,49.34
2018-05-25T07:45:09.957Z,49.54
2018-05-25T07:46:19.453Z,49.37
2018-05-25T07:47:28.886Z,49.34
2018-05-25T07:48:38.308Z,49.24
2018-05-25T07:49:47.480Z,49.63
2018-05-25T07:50:56.936Z,49.54
2018-05-25T07:52:06.112Z,49.63
2018-05-25T07:53:15.535Z,49.56
2018-05-25T07:54:25.035Z,49.24
2018-05-25T07:55:34.643Z,49.24
2018-05-25T07:56:44.351Z,49.54
2018-05-25T07:57:53.603Z,49.44
2018-05-25T07:59:02.821Z,49.44
2018-05-25T08:00:12.028Z,49.15
2018-05-25T08:01:22.001Z,49.27
2018-05-25T08:02:31.193Z,49.17
2018-05-25T08:03:40.618Z,49.17
2018-05-25T08:04:49.781Z,49.15
2018-05-25T08:05:58.964Z,49.27
2018-05-25T08:07:08.127Z,49.15
2018-05-25T08:08:18.065Z,49.17
2018-05-25T08:09:27.236Z,49.15
2018-05-25T08:10:36.448Z,49.15
2018-05-25T08:11:46.163Z,49.17
2018-05-25T08:12:55.357Z,49.15
2018-05-25T08:14:04.539Z,49.27
2018-05-25T08:15:14.254Z,49.17
2018-05-25T08:16:23.973Z,49.34
2018-05-25T08:17:33.660Z,49.15
2018-05-25T08:18:42.832Z,49.27
2018-05-25T08:19:52.037Z,49.17
2018-05-25T08:21:01.467Z,49.17
2018-05-25T08:22:11.183Z,49.27
2018-05-25T08:23:20.868Z,49.27
2018-05-25T08:24:30.314Z,49.27
2018-05-25T08:25:40.060Z,49.46
2018-05-25T08:26:49.767Z,49.27
2018-05-25T08:27:59.467Z,49.46
2018-05-25T08:29:09.184Z,49.46
2018-05-25T08:30:18.930Z,49.07
2018-05-25T08:31:28.249Z,49.37
2018-05-25T08:32:37.717Z,49.07
2018-05-25T08:33:46.956Z,49.05
2018-05-25T08:34:56.679Z,49.07
2018-05-25T08:36:06.107Z,48.97
2018-05-25T08:37:15.570Z,48.79
2018-05-25T08:38:24.497Z,48.79
2018-05-25T08:39:33.937Z,48.97
2018-05-25T08:40:42.856Z,48.97
2018-05-25T08:41:52.555Z,48.97
2018-05-25T08:43:01.752Z,48.95
2018-05-25T08:44:11.684Z,49.07
2018-05-25T08:45:21.104Z,49.07
2018-05-25T08:46:30.542Z,48.86
2018-05-25T08:47:40.492Z,48.97
2018-05-25T08:48:49.913Z,48.95
2018-05-25T08:49:59.117Z,49.07
2018-05-25T08:51:08.560Z,48.88
2018-05-25T08:52:17.996Z,49.05
2018-05-25T08:53:27.428Z,49.07
2018-05-25T08:54:36.601Z,48.86
2018-05-25T08:55:45.773Z,49.05
2018-05-25T08:56:54.945Z,48.97
2018-05-25T08:58:04.126Z,49.07
2018-05-25T08:59:13.907Z,49.07
2018-05-25T09:00:23.359Z,48.86
2018-05-25T09:01:33.072Z,49.07
2018-05-25T09:02:42.496Z,49.07
2018-05-25T09:03:52.436Z,48.88
2018-05-25T09:05:02.120Z,49.07
2018-05-25T09:06:12.079Z,49.07
2018-05-25T09:07:21.316Z,49.15
2018-05-25T09:08:30.983Z,48.88
2018-05-25T09:09:39.882Z,49.27
2018-05-25T09:10:49.577Z,49.27
2018-05-25T09:11:59.267Z,49.07
2018-05-25T09:13:08.439Z,49.07
2018-05-25T09:14:17.616Z,49.05
2018-05-25T09:15:27.051Z,49.07
2018-05-25T09:16:36.490Z,48.95
2018-05-25T09:17:45.693Z,48.88
2018-05-25T09:18:55.217Z,48.97
2018-05-25T09:20:23.845Z,48.97
2018-05-25T09:21:33.358Z,48.97
2018-05-25T09:22:42.715Z,48.97
2018-05-25T09:23:52.425Z,48.86
2018-05-25T09:25:01.839Z,49.07
2018-05-25T09:26:11.059Z,48.97
2018-05-25T09:27:20.992Z,48.97
2018-05-25T09:28:30.691Z,48.97
2018-05-25T09:29:39.629Z,49.07
2018-05-25T09:30:48.897Z,48.97
2018-05-25T09:31:58.740Z,48.97
2018-05-25T09:33:08.437Z,48.95
2018-05-25T09:34:18.134Z,49.07
2018-05-25T09:35:27.550Z,48.97
2018-05-25T09:36:36.982Z,48.95
2018-05-25T09:37:46.220Z,49.17
2018-05-25T09:38:55.123Z,48.97
2018-05-25T09:40:05.098Z,48.97
2018-05-25T09:41:14.772Z,48.97
2018-05-25T09:42:24.441Z,49.17
2018-05-25T09:43:33.973Z,49.07
2018-05-25T09:44:42.876Z,49.07
2018-05-25T09:45:51.787Z,49.07
2018-05-25T09:47:01.203Z,48.97
2018-05-25T09:48:10.930Z,48.95
2018-05-25T09:49:20.377Z,48.97
2018-05-25T09:50:29.827Z,48.97
2018-05-25T09:51:39.006Z,48.97
2018-05-25T09:52:48.720Z,48.97
2018-05-25T09:53:57.990Z,48.97
2018-05-25T09:55:06.913Z,48.88
2018-05-25T09:56:16.351Z,48.88
2018-05-25T09:57:25.582Z,48.97
2018-05-25T09:58:35.293Z,49.07
2018-05-25T09:59:44.980Z,48.88
2018-05-25T10:00:54.711Z,48.57
2018-05-25T10:02:04.140Z,48.79
2018-05-25T10:03:14.324Z,48.97
2018-05-25T10:04:23.768Z,48.88
2018-05-25T10:05:32.958Z,48.69
2018-05-25T10:06:42.137Z,48.88
2018-05-25T10:07:51.124Z,48.69
2018-05-25T10:09:00.588Z,48.59
2018-05-25T10:10:09.774Z,48.59
2018-05-25T10:11:19.226Z,48.59
2018-05-25T10:12:28.919Z,48.59
2018-05-25T10:13:37.830Z,48.59
2018-05-25T10:14:46.748Z,48.69
2018-05-25T10:15:56.426Z,48.88
2018-05-25T10:17:05.852Z,48.59
2018-05-25T10:18:15.522Z,48.88
2018-05-25T10:19:24.949Z,49.37
2018-05-25T10:20:34.373Z,48.88
2018-05-25T10:21:43.291Z,48.49
2018-05-25T10:22:52.482Z,48.97
2018-05-25T10:24:01.923Z,48.79
2018-05-25T10:25:11.355Z,48.79
2018-05-25T10:26:20.266Z,48.88
2018-05-25T10:27:29.202Z,48.79
2018-05-25T10:28:38.636Z,48.79
2018-05-25T10:29:48.390Z,48.69
2018-05-25T10:30:58.122Z,48.88
2018-05-25T10:32:07.808Z,48.69
2018-05-25T10:33:17.496Z,49.07
2018-05-25T10:34:26.954Z,48.69
2018-05-25T10:35:35.861Z,48.97
2018-05-25T10:36:45.285Z,48.97
2018-05-25T10:37:54.189Z,48.88
2018-05-25T10:39:03.603Z,48.88
2018-05-25T10:40:12.517Z,48.88
2018-05-25T10:41:21.719Z,48.79
2018-05-25T10:42:31.403Z,49.07
2018-05-25T10:43:40.323Z,48.88
2018-05-25T10:44:50.039Z,48.79
2018-05-25T10:45:59.458Z,48.79
2018-05-25T10:47:08.361Z,48.79
2018-05-25T10:48:17.291Z,48.79
2018-05-25T10:49:26.263Z,48.88
2018-05-25T10:50:35.450Z,49.07
2018-05-25T10:51:44.941Z,48.79
2018-05-25T10:52:54.114Z,49.17
2018-05-25T10:54:03.539Z,48.88
2018-05-25T10:55:12.744Z,49.07
2018-05-25T10:56:22.422Z,49.07
2018-05-25T10:57:31.628Z,48.97
2018-05-25T10:58:40.867Z,49.17
2018-05-25T10:59:50.583Z,48.88
2018-05-25T11:01:00.334Z,49.07
2018-05-25T11:02:09.765Z,48.79
2018-05-25T11:03:18.935Z,49.07
2018-05-25T11:04:28.106Z,49.07
2018-05-25T11:05:37.562Z,48.97
2018-05-25T11:06:46.746Z,49.07
2018-05-25T11:07:56.193Z,48.97
2018-05-25T11:09:05.643Z,48.79
2018-05-25T11:10:14.811Z,49.07
2018-05-25T11:11:24.241Z,48.79
2018-05-25T11:12:33.426Z,48.79
2018-05-25T11:13:42.585Z,49.07
2018-05-25T11:14:52.001Z,48.79
2018-05-25T11:16:00.897Z,48.3
2018-05-25T11:17:10.324Z,48.39
2018-05-25T11:18:19.732Z,48.79
2018-05-25T11:19:28.623Z,48.88
2018-05-25T11:20:38.084Z,48.88
2018-05-25T11:21:47.555Z,48.3
2018-05-25T11:22:57.276Z,49.17
2018-05-25T11:24:06.722Z,48.59
2018-05-25T11:25:16.150Z,48.88
2018-05-25T11:26:25.581Z,48.88
2018-05-25T11:27:34.491Z,48.97
2018-05-25T11:28:43.694Z,48.39
2018-05-25T11:29:53.395Z,48.88
2018-05-25T11:31:02.848Z,48.97
2018-05-25T11:32:12.826Z,48.69
2018-05-25T11:33:22.502Z,48.88
2018-05-25T11:34:32.180Z,48.79
2018-05-25T11:35:41.351Z,48.88
2018-05-25T11:36:50.532Z,48.88
2018-05-25T11:37:59.462Z,48.88
2018-05-25T11:39:08.924Z,48.79
2018-05-25T11:40:18.801Z,48.59
2018-05-25T11:41:28.521Z,48.88
2018-05-25T11:42:37.976Z,48.79
2018-05-25T11:43:47.673Z,48.59
2018-05-25T11:44:56.855Z,48.88
2018-05-25T11:46:06.535Z,48.59
2018-05-25T11:47:15.959Z,48.69
2018-05-25T11:48:25.905Z,48.59
2018-05-25T11:49:35.591Z,48.69
2018-05-25T11:50:44.787Z,48.69
2018-05-25T11:51:53.973Z,48.59
2018-05-25T11:53:03.237Z,48.69
2018-05-25T11:54:12.740Z,48.69
2018-05-25T11:55:21.913Z,48.59
2018-05-25T11:56:31.617Z,48.59
2018-05-25T11:57:40.810Z,48.69
2018-05-25T11:58:50.757Z,48.59
2018-05-25T12:00:00.180Z,48.59
2018-05-25T12:01:09.648Z,48.49
2018-05-25T12:02:18.837Z,48.59
2018-05-25T12:03:28.011Z,48.49
2018-05-25T12:04:37.457Z,48.79
2018-05-25T12:05:46.632Z,48.69
2018-05-25T12:06:55.289Z,48.59
2018-05-25T12:08:05.249Z,48.59
2018-05-25T12:09:14.443Z,48.59
2018-05-25T12:10:23.880Z,48.59
2018-05-25T12:11:33.567Z,48.69
2018-05-25T12:12:42.819Z,48.59
2018-05-25T12:13:51.987Z,48.69
2018-05-25T12:15:01.160Z,48.69
2018-05-25T12:16:10.868Z,48.69
2018-05-25T12:17:20.597Z,48.39
2018-05-25T12:18:29.773Z,48.88
2018-05-25T12:19:39.221Z,48.79
2018-05-25T12:20:48.934Z,48.79
2018-05-25T12:21:57.891Z,48.79
2018-05-25T12:23:07.868Z,48.79
2018-05-25T12:24:17.036Z,48.79
2018-05-25T12:25:26.709Z,48.79
2018-05-25T12:26:35.894Z,48.79
2018-05-25T12:27:45.068Z,48.69
2018-05-25T12:28:55.052Z,48.69
2018-05-25T12:30:04.235Z,48.88
2018-05-25T12:31:13.686Z,48.69
2018-05-25T12:32:22.858Z,48.79
2018-05-25T12:33:32.049Z,48.79
2018-05-25T12:34:41.782Z,48.88
2018-05-25T12:35:50.723Z,48.69
2018-05-25T12:37:00.258Z,48.79
2018-05-25T12:38:09.960Z,48.59
2018-05-25T12:39:19.927Z,48.88
2018-05-25T12:40:29.747Z,48.97
2018-05-25T12:41:39.620Z,48.97
2018-05-25T12:42:49.049Z,48.59
2018-05-25T12:43:58.765Z,48.59
2018-05-25T12:45:08.459Z,48.49
2018-05-25T12:46:17.653Z,48.49
2018-05-25T12:47:26.290Z,48.39
2018-05-25T12:48:35.966Z,48.49
2018-05-25T12:49:45.905Z,48.59
2018-05-25T12:50:55.348Z,48.39
2018-05-25T12:52:04.817Z,48.69
2018-05-25T12:53:13.752Z,48.79
2018-05-25T12:54:23.197Z,48.69
2018-05-25T12:55:32.943Z,48.69
2018-05-25T12:56:42.111Z,48.69
2018-05-25T12:57:51.676Z,48.79
2018-05-25T12:59:01.128Z,48.69
2018-05-25T13:00:10.847Z,48.69
2018-05-25T13:01:20.369Z,48.79
2018-05-25T13:02:29.548Z,48.69
2018-05-25T13:03:38.460Z,48.69
2018-05-25T13:04:47.866Z,48.59
2018-05-25T13:05:57.359Z,48.69
2018-05-25T13:07:07.300Z,48.69
2018-05-25T13:08:16.972Z,48.79
2018-05-25T13:09:26.657Z,48.59
2018-05-25T13:10:35.825Z,48.59
2018-05-25T13:11:45.040Z,48.69
2018-05-25T13:12:54.236Z,48.69
2018-05-25T13:14:03.924Z,48.59
2018-05-25T13:15:13.375Z,48.59
2018-05-25T13:16:23.055Z,48.59
2018-05-25T13:17:32.992Z,48.59
2018-05-25T13:18:42.420Z,48.39
2018-05-25T13:19:51.597Z,48.2
2018-05-25T13:21:00.516Z,48.59
2018-05-25T13:22:09.945Z,48.49
2018-05-25T13:23:19.367Z,47.91
2018-05-25T13:24:29.313Z,48.49
2018-05-25T13:25:38.488Z,48.3
2018-05-25T13:26:47.390Z,48.2
2018-05-25T13:27:57.083Z,48.2
2018-05-25T13:29:06.246Z,48.2
2018-05-25T13:30:15.402Z,48.11
2018-05-25T13:31:24.829Z,48.3
2018-05-25T13:32:34.490Z,48.2
2018-05-25T13:33:43.906Z,48.11
2018-05-25T13:34:53.341Z,48.11
2018-05-25T13:36:03.024Z,48.3
2018-05-25T13:37:12.456Z,48.49
2018-05-25T13:38:21.394Z,48.3
2018-05-25T13:39:31.097Z,48.2
2018-05-25T13:40:40.503Z,48.39
2018-05-25T13:41:50.177Z,48.59
2018-05-25T13:42:59.336Z,48.39
2018-05-25T13:44:09.278Z,48.49
2018-05-25T13:45:18.459Z,48.01
2018-05-25T13:46:28.132Z,48.2
2018-05-25T13:47:37.307Z,47.91
2018-05-25T13:48:46.449Z,47.91
2018-05-25T13:49:55.352Z,47.94
2018-05-25T13:51:04.768Z,48.03
2018-05-25T13:52:14.173Z,48.03
2018-05-25T13:53:23.595Z,47.81
2018-05-25T13:54:33.537Z,48.01
2018-05-25T13:55:42.965Z,47.72
2018-05-25T13:56:52.387Z,47.62
2018-05-25T13:58:02.052Z,47.74
2018-05-25T13:59:11.737Z,48.03
2018-05-25T14:00:21.419Z,48.01
2018-05-25T14:01:30.570Z,48.01
2018-05-25T14:02:39.731Z,47.94
2018-05-25T14:03:49.423Z,47.84
2018-05-25T14:04:59.124Z,47.84
2018-05-25T14:06:08.022Z,47.84
2018-05-25T14:07:17.188Z,47.84
2018-05-25T14:08:26.599Z,47.94
2018-05-25T14:09:36.053Z,47.74
2018-05-25T14:10:45.481Z,47.84
2018-05-25T14:11:55.458Z,47.84
2018-05-25T14:13:04.624Z,47.84
2018-05-25T14:14:14.316Z,47.74
2018-05-25T14:15:23.508Z,47.74
2018-05-25T14:16:32.942Z,47.94
2018-05-25T14:17:42.381Z,48.03
2018-05-25T14:18:52.320Z,47.91
2018-05-25T14:20:02.264Z,48.03
2018-05-25T14:21:11.958Z,47.91
2018-05-25T14:22:21.409Z,47.91
2018-05-25T14:23:31.097Z,48.01
2018-05-25T14:24:40.589Z,47.62
2018-05-25T14:25:50.286Z,47.81
2018-05-25T14:26:59.978Z,47.72
2018-05-25T14:28:09.689Z,48.01
2018-05-25T14:29:19.393Z,48.01
2018-05-25T14:30:29.067Z,47.81
2018-05-25T14:31:38.329Z,47.72
2018-05-25T14:32:48.043Z,47.91
2018-05-25T14:33:56.950Z,47.72
2018-05-25T14:35:07.334Z,47.74
2018-05-25T14:36:16.523Z,47.72
2018-05-25T14:37:26.010Z,47.72
2018-05-25T14:38:35.197Z,47.81
2018-05-25T14:39:43.866Z,47.62
2018-05-25T14:40:53.271Z,47.81
2018-05-25T14:42:02.239Z,48.01
2018-05-25T14:43:11.684Z,48.03
2018-05-25T14:44:21.398Z,48.03
2018-05-25T14:45:30.823Z,47.72
2018-05-25T14:46:40.526Z,47.81
2018-05-25T14:47:49.971Z,47.74
2018-05-25T14:48:59.413Z,47.64
2018-05-25T14:50:09.108Z,47.91
2018-05-25T14:51:18.023Z,48.03
2018-05-25T14:52:26.979Z,48.03
2018-05-25T14:53:36.736Z,48.01
2018-05-25T14:54:46.142Z,47.72
2018-05-25T14:55:55.567Z,47.72